Time;durP1;ratioP1;P1;durP2;ratioP2;P2;SDS_P1;SDS_P2;PMS_P1;PMS_P2;Temp;Humidity;BMP_temperature;BMP_pressure;BME280_temperature;BME280_humidity;BME280_pressure;Samples;Min_cycle;Max_cycle;Signal;HPM_P1;HPM_P2
2022/02/07 00:01:12;;;;;;;13.15;6.53;;;;;;;5.10;85.09;98163.66;5053301;28;20052;-65
2022/02/07 00:03:46;;;;;;;13.65;6.40;;;;;;;5.07;85.08;98151.88;5055445;28;20425;-65
2022/02/07 00:06:15;;;;;;;13.48;6.93;;;;;;;5.09;85.05;98147.63;5054313;28;20060;-66
2022/02/07 00:08:47;;;;;;;15.43;7.00;;;;;;;5.11;84.96;98130.78;5054597;28;20043;-66
2022/02/07 00:11:18;;;;;;;14.90;7.45;;;;;;;5.05;85.16;98109.75;5054453;28;20391;-67
2022/02/07 00:13:47;;;;;;;15.55;7.93;;;;;;;5.18;85.29;98127.38;5054242;28;20494;-67
2022/02/07 00:16:16;;;;;;;14.63;7.53;;;;;;;5.18;85.18;98132.41;5054154;28;20064;-66
2022/02/07 00:18:45;;;;;;;15.63;7.90;;;;;;;5.19;85.19;98129.06;5054087;28;20536;-66
2022/02/07 00:21:14;;;;;;;18.15;8.82;;;;;;;5.20;85.32;98128.22;5054277;28;20056;-66
2022/02/07 00:23:46;;;;;;;15.63;7.90;;;;;;;5.15;85.66;98114.75;5053938;28;20517;-66
2022/02/07 00:26:19;;;;;;;17.67;7.93;;;;;;;5.22;85.29;98129.06;5054309;28;20111;-66
2022/02/07 00:28:48;;;;;;;19.30;9.02;;;;;;;5.18;85.55;98124.03;5054250;28;20080;-66
2022/02/07 00:31:22;;;;;;;21.25;9.02;;;;;;;5.16;85.56;98108.84;5053800;28;20045;-67
2022/02/07 00:33:53;;;;;;;19.60;9.20;;;;;;;5.20;85.55;98110.53;5054301;28;20136;-66
2022/02/07 00:36:22;;;;;;;17.95;8.52;;;;;;;5.21;85.95;98106.28;5054387;28;20071;-65
2022/02/07 00:38:57;;;;;;;19.27;8.98;;;;;;;5.24;85.75;98117.25;5053716;28;20075;-66
2022/02/07 00:41:36;;;;;;;17.48;8.23;;;;;;;5.21;85.61;98117.25;5054029;28;20048;-66
2022/02/07 00:44:12;;;;;;;20.45;9.45;;;;;;;5.19;86.02;98129.06;5054039;28;20049;-66
2022/02/07 00:46:50;;;;;;;15.80;8.93;;;;;;;5.12;86.05;98127.41;5053664;28;20053;-66
2022/02/07 00:49:20;;;;;;;15.95;9.13;;;;;;;5.15;86.04;98132.47;5052452;28;20128;-65
2022/02/07 00:51:58;;;;;;;21.67;10.13;;;;;;;5.15;85.84;98136.66;5053800;28;20048;-66
2022/02/07 00:54:28;;;;;;;19.80;9.90;;;;;;;5.12;85.88;98127.41;5053805;28;20045;-66
2022/02/07 00:56:58;;;;;;;13.03;6.70;;;;;;;5.06;85.96;98112.25;5053106;28;20047;-65
2022/02/07 00:59:27;;;;;;;20.52;9.93;;;;;;;5.12;85.95;98117.28;5053707;28;20578;-65
2022/02/07 01:01:57;;;;;;;19.58;10.07;;;;;;;5.13;86.00;98119.00;5053367;28;20556;-66
2022/02/07 01:04:26;;;;;;;12.63;6.78;;;;;;;5.09;86.03;98117.31;5035869;28;20120;-65
2022/02/07 01:07:13;;;;;;;22.88;9.40;;;;;;;5.08;86.57;98115.63;5052742;28;20092;-67
2022/02/07 01:09:51;;;;;;;20.13;9.90;;;;;;;5.08;86.44;98105.53;5053594;28;20033;-66
2022/02/07 01:13:17;;;;;;;;;;;;;;;5.12;86.22;98092.00;4422522;28;20051;-66
2022/02/07 01:16:07;;;;;;;17.08;8.93;;;;;;;4.99;86.32;98067.63;4938346;29;19922;-67
2022/02/07 01:52:39;;;;;;;17.38;8.95;;;;;;;5.08;86.91;97994.28;4953015;28;20552;-67
2022/02/07 01:55:29;;;;;;;21.23;8.40;;;;;;;5.04;86.83;97997.66;4954091;29;20102;-66
2022/02/07 01:58:06;;;;;;;18.35;9.93;;;;;;;4.99;86.90;97984.22;4938447;29;20055;-67
2022/02/07 02:00:40;;;;;;;19.63;9.25;;;;;;;5.01;86.95;97956.41;4954137;29;20047;-67
2022/02/07 02:03:11;;;;;;;21.48;9.00;;;;;;;5.02;87.09;97943.75;4954911;29;20067;-65
2022/02/07 02:06:07;;;;;;;19.70;9.82;;;;;;;5.02;87.18;97917.63;4953602;29;20057;-66
2022/02/07 02:08:51;;;;;;;19.42;9.00;;;;;;;5.01;87.18;97921.88;4954925;28;20043;-66
2022/02/07 02:11:21;;;;;;;18.50;9.32;;;;;;;4.98;87.04;97921.91;4958324;28;20081;-67
2022/02/07 02:14:12;;;;;;;;;;;;;;;4.97;87.27;97914.31;4974652;28;20058;-66
2022/02/07 02:16:58;;;;;;;17.60;8.95;;;;;;;4.91;87.03;97915.19;4977853;28;20035;-65
2022/02/07 02:36:15;;;;;;;18.17;8.77;;;;;;;4.93;87.26;97905.06;4953701;28;20078;-65
2022/02/07 02:45:21;;;;;;;19.73;9.15;;;;;;;4.97;87.45;97905.03;4976566;28;20366;-66
2022/02/07 02:47:08;;;;;;;16.10;8.35;;;;;;;5.01;87.59;97919.34;4975907;28;20043;-66
2022/02/07 02:49:46;;;;;;;18.08;9.05;;;;;;;5.00;87.64;97910.06;4977287;28;20398;-66
2022/02/07 02:52:16;;;;;;;17.80;9.20;;;;;;;5.00;87.33;97910.06;4976925;28;20054;-65
2022/02/07 02:54:47;;;;;;;;;;;;;;;5.03;87.11;97920.19;4976274;28;20141;-65
2022/02/07 02:57:16;;;;;;;16.63;7.50;;;;;;;5.02;87.13;97926.06;4976847;28;19922;-66
2022/02/07 02:59:45;;;;;;;18.55;8.98;;;;;;;5.01;87.39;97924.41;4975665;28;20142;-65
2022/02/07 03:02:17;;;;;;;16.93;8.60;;;;;;;4.96;87.08;97917.69;4976746;28;20127;-65
2022/02/07 03:04:47;;;;;;;17.73;8.20;;;;;;;4.95;87.29;97921.91;4975660;28;20046;-65
2022/02/07 03:07:16;;;;;;;16.57;8.63;;;;;;;4.94;86.83;97900.03;4976954;28;20492;-65
2022/02/07 03:09:50;;;;;;;19.13;8.33;;;;;;;4.92;87.48;97884.00;4976621;28;20284;-66
2022/02/07 03:12:19;;;;;;;20.98;9.13;;;;;;;4.88;87.04;97869.72;4976451;28;20051;-65
2022/02/07 03:14:49;;;;;;;20.38;9.38;;;;;;;4.84;86.77;97872.28;4975627;28;20118;-67
2022/02/07 03:17:17;;;;;;;17.92;8.75;;;;;;;4.81;87.16;97858.00;4975905;28;20173;-66
2022/02/07 03:19:49;;;;;;;19.17;8.43;;;;;;;4.72;87.10;97858.06;4976644;28;20046;-66
2022/02/07 03:22:27;;;;;;;18.63;8.75;;;;;;;4.72;87.27;97880.81;4977047;28;20043;-65
2022/02/07 03:25:00;;;;;;;16.02;8.60;;;;;;;4.71;87.63;97881.63;4976711;28;20101;-66
2022/02/07 03:27:38;;;;;;;20.38;8.23;;;;;;;4.71;87.08;97871.53;4975333;28;20073;-66
2022/02/07 03:30:18;;;;;;;;;;;;;;;4.73;86.93;97869.81;4960341;28;20054;-65
2022/02/07 03:32:50;;;;;;;16.35;8.02;;;;;;;4.72;87.01;97878.28;4975066;28;19926;-66
2022/02/07 03:35:20;;;;;;;15.50;8.43;;;;;;;4.70;86.85;97892.63;4959230;28;20065;-66
2022/02/07 03:37:49;;;;;;;17.48;8.00;;;;;;;4.64;87.36;97874.94;4974886;28;20071;-65
2022/02/07 03:40:30;;;;;;;17.08;8.20;;;;;;;4.62;86.96;97896.88;4975006;28;20093;-66
2022/02/07 03:42:59;;;;;;;12.82;6.13;;;;;;;4.60;86.93;97904.47;4976076;28;20503;-66
2022/02/07 03:45:31;;;;;;;9.82;5.80;;;;;;;4.60;87.46;97898.56;4974832;28;20511;-66
2022/02/07 03:48:06;;;;;;;15.25;7.30;;;;;;;4.59;87.57;97922.13;4958693;28;20047;-65
2022/02/07 03:50:38;;;;;;;15.35;7.97;;;;;;;4.58;87.33;97920.47;4974759;28;20043;-65
2022/02/07 03:53:07;;;;;;;17.83;8.95;;;;;;;4.54;87.29;97923.84;4974625;28;20046;-65
2022/02/07 03:55:50;;;;;;;16.83;7.82;;;;;;;4.57;87.33;97951.63;4958863;28;20118;-65
2022/02/07 03:58:21;;;;;;;19.02;9.40;;;;;;;4.54;87.63;97947.41;4974568;28;20057;-65
2022/02/07 04:00:59;;;;;;;17.90;9.02;;;;;;;4.56;87.53;97953.28;4975708;28;20504;-66
2022/02/07 04:03:46;;;;;;;20.40;8.52;;;;;;;4.53;87.61;97947.44;4976268;28;20051;-66
2022/02/07 04:06:27;;;;;;;15.48;8.48;;;;;;;4.52;87.42;97950.78;4974693;28;20058;-65
2022/02/07 04:09:17;;;;;;;18.55;9.45;;;;;;;4.52;87.39;97950.78;4974614;28;20122;-65
2022/02/07 04:11:55;;;;;;;16.23;8.20;;;;;;;4.59;87.83;97944.88;4974181;28;20511;-66
2022/02/07 04:14:31;;;;;;;15.77;8.70;;;;;;;4.55;87.36;97958.38;4958197;28;20138;-66
2022/02/07 04:17:21;;;;;;;18.50;8.40;;;;;;;4.56;87.53;97963.41;4974608;28;20190;-66
2022/02/07 04:19:59;;;;;;;15.30;8.20;;;;;;;4.60;87.61;97969.28;4958511;28;20047;-66
2022/02/07 04:22:56;;;;;;;18.73;8.95;;;;;;;4.62;87.89;97952.44;4975319;28;20042;-65
2022/02/07 04:25:44;;;;;;;16.02;8.65;;;;;;;4.62;87.52;97952.44;4928774;28;20043;-67
2022/02/07 04:28:17;;;;;;;18.40;9.40;;;;;;;4.63;87.91;97969.28;4975447;28;20066;-66
2022/02/07 04:30:49;;;;;;;18.38;8.60;;;;;;;4.63;87.95;97974.34;4975124;28;20070;-66
2022/02/07 04:33:24;;;;;;;21.80;9.30;;;;;;;4.64;87.66;97983.56;4974737;28;20047;-66
2022/02/07 04:35:53;;;;;;;17.63;8.25;;;;;;;4.63;87.56;97989.50;4975573;28;20057;-66
2022/02/07 04:38:25;;;;;;;13.60;7.17;;;;;;;4.65;87.68;98000.44;4975041;28;20523;-66
2022/02/07 04:40:58;;;;;;;17.33;9.48;;;;;;;4.64;87.66;98008.84;4973964;28;20102;-65
2022/02/07 04:43:32;;;;;;;17.35;9.63;;;;;;;4.63;87.99;98004.66;4974963;28;20042;-66
2022/02/07 04:46:09;;;;;;;20.20;9.27;;;;;;;4.63;87.43;98004.66;4957739;28;20042;-65
2022/02/07 04:54:14;;;;;;;20.35;9.95;;;;;;;4.58;87.67;98014.75;4973638;28;20043;-66
2022/02/07 04:59:39;;;;;;;15.13;8.50;;;;;;;4.58;87.38;98021.50;4973715;28;20133;-66
2022/02/07 05:02:25;;;;;;;17.13;9.45;;;;;;;4.60;87.63;98034.97;4973628;28;20054;-65
2022/02/07 05:05:09;;;;;;;17.98;8.55;;;;;;;4.66;87.43;98037.44;4974168;28;20454;-66
2022/02/07 05:15:50;;;;;;;16.98;8.05;;;;;;;4.59;87.61;98023.16;4973561;28;20051;-65
2022/02/07 05:18:22;;;;;;;17.08;8.13;;;;;;;4.57;87.74;98017.28;4973558;28;20043;-65
2022/02/07 05:21:16;;;;;;;15.00;8.18;;;;;;;4.55;87.86;98013.94;4974635;28;20089;-66
2022/02/07 05:23:59;;;;;;;14.98;7.40;;;;;;;4.58;87.89;98016.47;4957380;28;20057;-65
2022/02/07 05:26:28;;;;;;;13.50;6.55;;;;;;;4.62;87.82;98030.75;4974755;28;20050;-65
2022/02/07 05:29:16;;;;;;;;;;;;;;;4.69;87.85;98050.94;4975267;28;20094;-65
2022/02/07 05:32:25;;;;;;;9.60;5.18;;;;;;;4.65;87.63;98051.75;4953639;28;20431;-66
2022/02/07 05:35:09;;;;;;;13.73;6.63;;;;;;;4.72;87.75;98045.03;4974689;28;20469;-66
2022/02/07 05:37:48;;;;;;;11.57;6.43;;;;;;;4.71;87.74;98053.44;4974452;28;20121;-65
2022/02/07 05:40:34;;;;;;;10.43;5.63;;;;;;;4.71;87.62;98048.38;4974501;28;20050;-65
2022/02/07 05:43:30;;;;;;;8.15;3.42;;;;;;;4.81;87.98;98044.13;4967708;28;20420;-66
2022/02/07 05:46:11;;;;;;;9.38;3.75;;;;;;;4.88;87.37;98051.69;4960947;28;20051;-65
2022/02/07 05:48:51;;;;;;;;;;;;;;;5.00;87.73;98055.84;4978556;28;20134;-66
2022/02/07 05:51:29;;;;;;;3.95;1.83;;;;;;;5.08;87.71;98060.03;4978343;28;19926;-65
2022/02/07 05:54:09;;;;;;;3.25;1.45;;;;;;;5.08;87.34;98060.03;4978402;28;20373;-65
2022/02/07 05:57:07;;;;;;;3.08;1.27;;;;;;;5.10;87.38;98073.50;4963235;28;20050;-65
2022/02/07 06:00:03;;;;;;;2.95;1.20;;;;;;;5.11;87.04;98075.16;4971844;28;20070;-65
2022/02/07 06:02:45;;;;;;;;;;;;;;;5.11;86.80;98082.72;4978274;28;20057;-65
2022/02/07 06:05:33;;;;;;;2.53;1.00;;;;;;;5.10;86.59;98088.66;4976899;28;19928;-66
2022/02/07 06:08:20;;;;;;;2.47;1.20;;;;;;;5.13;86.28;98088.66;4977607;28;20047;-65
2022/02/07 06:10:52;;;;;;;3.83;1.30;;;;;;;5.17;86.12;98095.38;4976383;28;20047;-66
2022/02/07 06:13:31;;;;;;;1.23;0.80;;;;;;;5.14;85.80;98094.53;4976495;28;20046;-66
2022/02/07 06:16:07;;;;;;;1.23;0.80;;;;;;;5.13;85.48;98093.72;4977742;28;20404;-65
2022/02/07 06:18:36;;;;;;;0.95;0.70;;;;;;;5.15;85.14;98097.06;4960640;28;20471;-65
2022/02/07 06:21:17;;;;;;;1.40;0.80;;;;;;;5.11;84.66;98100.44;4976316;28;20493;-65
2022/02/07 06:23:46;;;;;;;3.40;1.17;;;;;;;5.06;84.56;98112.25;4976630;28;20073;-65
2022/02/07 06:26:23;;;;;;;1.65;0.80;;;;;;;5.07;84.22;98116.47;4976302;28;20043;-65
2022/02/07 06:28:55;;;;;;;1.42;0.90;;;;;;;5.08;84.60;98113.13;4977313;28;20500;-65
2022/02/07 06:31:29;;;;;;;1.85;0.80;;;;;;;5.13;84.31;98130.78;4977391;28;20500;-65
2022/02/07 06:34:01;;;;;;;1.15;0.70;;;;;;;5.10;84.23;98134.16;4977239;28;20408;-65
2022/02/07 06:36:32;;;;;;;1.10;0.93;;;;;;;5.10;84.03;98139.22;4977417;28;20046;-65
2022/02/07 06:39:03;;;;;;;1.20;0.70;;;;;;;5.10;84.14;98139.22;4977466;28;20078;-65
2022/02/07 06:41:47;;;;;;;1.83;0.93;;;;;;;5.13;84.46;98144.28;4977475;28;20074;-65
2022/02/07 06:44:22;;;;;;;1.52;0.80;;;;;;;5.11;84.08;98166.16;4977464;28;20046;-65
2022/02/07 06:46:52;;;;;;;0.85;0.70;;;;;;;5.13;84.04;98174.63;4959617;28;20106;-65
2022/02/07 06:49:21;;;;;;;0.88;0.60;;;;;;;5.12;83.93;98203.25;4975600;28;20042;-66
2022/02/07 06:51:52;;;;;;;1.85;0.70;;;;;;;5.10;84.22;98212.53;4959680;28;20043;-65
2022/02/07 06:54:21;;;;;;;0.88;0.52;;;;;;;5.07;83.80;98210.00;4976597;28;20047;-65
2022/02/07 06:56:52;;;;;;;0.67;0.60;;;;;;;5.09;83.96;98233.59;4975581;28;20409;-65
2022/02/07 06:59:21;;;;;;;0.85;0.50;;;;;;;5.08;83.55;98256.38;4976829;28;20051;-65
2022/02/07 07:01:56;;;;;;;0.80;0.55;;;;;;;4.96;83.78;98292.63;4959975;28;20051;-65
2022/02/07 07:04:28;;;;;;;0.70;0.55;;;;;;;4.84;83.73;98312.84;4977029;28;20061;-66
2022/02/07 07:07:00;;;;;;;0.98;0.70;;;;;;;4.61;83.57;98299.34;4975606;28;20061;-66
2022/02/07 07:09:33;;;;;;;0.70;0.40;;;;;;;4.40;83.59;98274.09;4976935;28;20054;-67
2022/02/07 07:12:06;;;;;;;0.38;0.32;;;;;;;4.36;83.63;98272.41;4975508;28;20143;-67
2022/02/07 07:14:46;;;;;;;0.38;0.38;;;;;;;4.36;82.66;98272.41;4977216;28;20050;-64
2022/02/07 07:17:16;;;;;;;0.52;0.50;;;;;;;4.39;82.92;98273.22;4975401;28;20046;-65
2022/02/07 07:19:49;;;;;;;0.65;0.40;;;;;;;4.37;82.64;98274.06;4976812;28;20121;-65
2022/02/07 07:22:20;;;;;;;2.35;1.38;;;;;;;4.36;82.50;98292.59;4959758;28;20051;-64
2022/02/07 07:24:51;;;;;;;2.38;1.40;;;;;;;4.36;82.08;98303.56;4976281;28;20038;-66
2022/02/07 07:27:27;;;;;;;2.03;1.00;;;;;;;4.44;81.72;98317.03;4959055;28;20137;-64
2022/02/07 07:29:56;;;;;;;1.75;0.93;;;;;;;4.48;81.27;98331.34;4975154;28;20116;-64
2022/02/07 07:32:29;;;;;;;0.65;0.60;;;;;;;4.47;81.41;98341.44;4975264;28;20046;-65
2022/02/07 07:35:01;;;;;;;0.98;0.85;;;;;;;4.47;81.57;98352.38;4974968;28;20031;-64
2022/02/07 07:37:32;;;;;;;0.93;0.60;;;;;;;4.47;81.24;98356.59;4976326;28;20134;-64
2022/02/07 07:40:03;;;;;;;0.80;0.50;;;;;;;4.46;81.18;98367.56;4975300;28;20131;-64
2022/02/07 07:42:33;;;;;;;0.57;0.50;;;;;;;4.46;81.03;98372.59;4958831;28;20047;-64
2022/02/07 07:45:14;;;;;;;;;;;;;;;4.52;80.84;98383.56;4976660;28;20053;-64
2022/02/07 07:47:58;;;;;;;1.35;0.90;;;;;;;4.60;80.79;98383.56;4975207;28;19922;-64
2022/02/07 07:50:53;;;;;;;1.23;0.65;;;;;;;4.60;79.58;98388.63;4965404;28;20054;-65
2022/02/07 07:53:48;;;;;;;2.55;0.70;;;;;;;4.64;79.40;98397.88;4976205;28;20055;-64
2022/02/07 08:01:55;;;;;;;0.57;0.57;;;;;;;4.54;77.85;98436.59;4975966;28;20437;-64
2022/02/07 08:04:28;;;;;;;1.52;0.60;;;;;;;4.47;76.88;98429.84;4976015;28;20051;-67
2022/02/07 08:07:05;;;;;;;1.20;0.80;;;;;;;4.42;76.07;98424.78;4973865;28;20055;-65
2022/02/07 08:09:59;;;;;;;2.03;1.02;;;;;;;4.34;75.84;98413.81;4975521;28;20053;-64
2022/02/07 08:12:34;;;;;;;0.90;0.70;;;;;;;4.61;75.40;98440.81;4973966;28;20047;-64
2022/02/07 08:18:34;;;;;;;;;;;;;;;5.02;73.98;98469.56;4934813;29;20142;-68
2022/02/07 08:21:06;;;;;;;1.75;0.80;;;;;;;5.19;73.38;98456.94;4936995;29;19923;-68
2022/02/07 08:23:35;;;;;;;2.47;0.90;;;;;;;5.28;73.21;98462.84;4937354;29;20067;-67
2022/02/07 08:26:09;;;;;;;1.08;0.68;;;;;;;5.38;72.34;98464.53;4937130;29;20094;-68
2022/02/07 08:28:46;;;;;;;2.00;0.95;;;;;;;5.59;71.88;98478.88;4936992;29;20051;-68
2022/02/07 08:31:17;;;;;;;1.57;0.83;;;;;;;5.61;71.41;98477.19;4937062;29;20048;-69
2022/02/07 08:33:46;;;;;;;1.45;0.80;;;;;;;5.68;71.04;98489.00;4936578;29;20043;-69
2022/02/07 08:36:16;;;;;;;;;;;;;;;5.66;70.37;98495.75;4937413;29;20048;-68
2022/02/07 08:38:45;;;;;;;0.82;0.63;;;;;;;5.83;70.29;98513.47;4936588;29;19929;-68
2022/02/07 08:41:18;;;;;;;1.00;0.60;;;;;;;5.79;69.62;98527.78;4936555;29;20036;-69
2022/02/07 08:43:54;;;;;;;1.52;0.80;;;;;;;5.73;69.20;98537.09;4936650;29;20286;-69
2022/02/07 08:46:23;;;;;;;2.10;0.80;;;;;;;5.60;68.98;98535.38;4942682;29;20051;-68
2022/02/07 08:48:52;;;;;;;1.13;0.70;;;;;;;5.50;68.56;98533.69;4955287;29;20489;-67
2022/02/07 08:51:21;;;;;;;1.75;1.10;;;;;;;5.39;68.56;98537.06;4955264;29;20130;-67
2022/02/07 08:53:51;;;;;;;4.50;0.80;;;;;;;5.30;68.21;98526.91;4955470;29;20541;-68
2022/02/07 08:56:36;;;;;;;2.08;1.13;;;;;;;5.30;68.31;98531.97;4955171;29;20035;-68
2022/02/07 08:59:05;;;;;;;2.15;1.00;;;;;;;5.28;68.40;98538.72;4927409;29;20486;-67
2022/02/07 09:01:45;;;;;;;3.55;1.58;;;;;;;5.23;68.34;98535.34;4921220;29;20074;-67
2022/02/07 09:07:05;;;;;;;;;;;;;;;5.22;68.37;98548.84;4943833;29;20047;-68
2022/02/07 09:09:36;;;;;;;2.17;1.20;;;;;;;5.32;68.01;98550.56;4936369;29;19929;-67
2022/02/07 09:12:08;;;;;;;2.63;1.00;;;;;;;5.36;68.08;98552.25;4937810;29;20572;-67
2022/02/07 09:14:43;;;;;;;2.17;1.10;;;;;;;5.37;68.37;98551.38;4930063;29;20111;-68
2022/02/07 09:17:12;;;;;;;3.63;1.52;;;;;;;5.43;68.40;98569.13;4927402;29;20071;-68
2022/02/07 09:19:41;;;;;;;2.92;1.33;;;;;;;5.57;68.03;98573.31;4919040;29;20502;-67
2022/02/07 09:22:10;;;;;;;1.35;0.85;;;;;;;5.57;68.28;98578.38;4940126;29;20043;-67
2022/02/07 09:24:39;;;;;;;1.30;0.82;;;;;;;5.48;68.36;98596.09;4940131;29;20122;-68
2022/02/07 09:27:09;;;;;;;1.10;0.73;;;;;;;5.38;68.61;98603.66;4940216;29;20138;-68
2022/02/07 09:29:40;;;;;;;1.27;0.70;;;;;;;5.25;68.46;98634.84;4940084;29;20111;-67
2022/02/07 09:32:10;;;;;;;2.67;1.00;;;;;;;5.03;69.31;98634.75;4940374;29;20047;-67
2022/02/07 09:34:40;;;;;;;2.28;0.90;;;;;;;4.86;70.20;98629.63;4939907;29;20497;-67
2022/02/07 09:37:08;;;;;;;1.83;0.80;;;;;;;5.02;70.42;98631.38;4939898;29;20043;-68
2022/02/07 09:39:38;;;;;;;1.93;0.60;;;;;;;5.42;70.81;98635.72;4939890;29;20134;-68
2022/02/07 09:42:10;;;;;;;2.25;1.08;;;;;;;5.84;70.58;98636.66;4939774;29;20285;-68
2022/02/07 09:44:45;;;;;;;2.13;1.17;;;;;;;6.20;70.16;98634.16;4933506;29;20051;-67
2022/02/07 09:47:15;;;;;;;1.17;0.70;;;;;;;6.41;68.41;98631.59;4924338;29;20402;-68
2022/02/07 09:49:46;;;;;;;2.78;1.10;;;;;;;6.52;66.32;98635.00;4932863;29;20079;-67
2022/02/07 09:52:15;;;;;;;0.63;0.50;;;;;;;6.71;64.94;98641.72;4939659;29;20048;-67
2022/02/07 09:54:45;;;;;;;1.15;0.60;;;;;;;6.98;64.79;98665.31;4939560;29;20043;-68
2022/02/07 09:57:20;;;;;;;0.73;0.60;;;;;;;7.04;62.51;98650.91;4938060;29;20102;-69
2022/02/07 09:59:54;;;;;;;2.13;0.70;;;;;;;7.09;61.74;98648.34;4939941;29;20434;-69
2022/02/07 10:02:44;;;;;;;2.28;0.85;;;;;;;7.17;60.93;98657.63;4939831;29;20486;-68
2022/02/07 10:05:19;;;;;;;1.42;0.82;;;;;;;7.25;59.52;98667.72;4939703;29;20099;-68
2022/02/07 10:07:59;;;;;;;2.05;0.93;;;;;;;7.23;59.34;98665.22;4939414;29;20136;-68
2022/02/07 10:10:45;;;;;;;1.40;0.80;;;;;;;7.42;58.20;98668.50;4939704;29;20572;-69
2022/02/07 10:13:30;;;;;;;1.17;0.80;;;;;;;7.40;58.69;98677.84;4939203;29;20048;-68
2022/02/07 10:16:10;;;;;;;1.20;0.77;;;;;;;7.19;59.37;98676.22;4939367;29;20043;-68
2022/02/07 10:18:45;;;;;;;1.13;0.75;;;;;;;6.88;58.22;98678.84;4939032;29;20048;-69
2022/02/07 10:43:30;;;;;;;2.92;1.05;;;;;;;6.04;60.23;98726.19;4591735;28;20502;-68
2022/02/07 10:46:05;;;;;;;1.85;0.90;;;;;;;5.93;60.41;98727.84;4977069;28;20105;-67
2022/02/07 10:48:38;;;;;;;4.20;1.02;;;;;;;5.92;61.07;98737.13;4977117;28;20046;-68
2022/02/07 10:51:14;;;;;;;3.40;1.40;;;;;;;5.93;60.89;98737.97;4977064;28;20059;-70
2022/02/07 10:53:46;;;;;;;3.08;1.10;;;;;;;5.93;61.57;98754.00;4977064;28;20047;-69
2022/02/07 10:56:18;;;;;;;2.78;0.80;;;;;;;5.82;61.56;98749.72;4976870;28;20050;-68
2022/02/07 10:58:49;;;;;;;2.00;0.80;;;;;;;5.76;61.88;98750.53;4977144;28;20385;-68
2022/02/07 11:01:26;;;;;;;2.72;0.90;;;;;;;5.86;62.06;98741.31;4970252;28;20047;-67
2022/02/07 11:03:58;;;;;;;2.17;0.85;;;;;;;5.88;61.72;98735.41;4976975;28;20145;-69
2022/02/07 11:06:32;;;;;;;2.85;0.98;;;;;;;5.87;61.74;98743.88;4971029;28;20057;-67
2022/02/07 11:09:19;;;;;;;4.45;1.13;;;;;;;5.88;60.95;98745.56;4976800;28;20448;-67
2022/02/07 11:14:45;;;;;;;1.88;0.82;;;;;;;5.88;60.40;98749.75;4977036;28;20047;-67
2022/02/07 11:17:32;;;;;;;2.28;0.90;;;;;;;6.38;60.07;98760.84;4976530;28;20043;-66
2022/02/07 11:23:22;;;;;;;1.13;0.70;;;;;;;6.63;58.95;98779.44;4975742;28;20076;-68
2022/02/07 11:25:57;;;;;;;2.00;1.15;;;;;;;7.32;58.01;98778.50;4976668;28;20396;-68
2022/02/07 11:28:27;;;;;;;2.17;0.60;;;;;;;7.65;57.19;98793.69;4976598;28;20068;-67
2022/02/07 11:30:57;;;;;;;1.92;0.93;;;;;;;7.21;56.46;98785.31;4974362;28;20043;-68
2022/02/07 11:33:33;;;;;;;1.35;0.93;;;;;;;6.83;57.52;98792.97;4976486;28;20066;-68
2022/02/07 11:36:04;;;;;;;2.08;1.08;;;;;;;6.61;57.66;98812.41;4976163;28;20061;-68
2022/02/07 11:38:33;;;;;;;1.95;0.90;;;;;;;6.51;57.78;98810.69;4976080;28;20053;-68
2022/02/07 11:44:18;;;;;;;1.50;0.88;;;;;;;6.24;57.94;98825.03;4955861;29;20062;-68
2022/02/07 11:46:48;;;;;;;1.08;0.50;;;;;;;6.28;57.84;98822.50;4956726;29;20070;-67
2022/02/07 11:49:44;;;;;;;;;;;;;;;6.24;57.90;98832.63;4950858;28;20543;-67
2022/02/07 11:52:29;;;;;;;2.50;0.70;;;;;;;6.26;58.43;98836.84;4939878;29;19922;-67
2022/02/07 11:55:04;;;;;;;1.33;0.80;;;;;;;6.25;58.54;98852.88;4956465;29;20222;-69
2022/02/07 11:57:37;;;;;;;2.35;0.80;;;;;;;6.27;58.32;98853.72;4956520;29;20039;-69
2022/02/07 12:00:13;;;;;;;2.05;0.70;;;;;;;6.28;58.03;98841.91;4957568;29;20477;-69
2022/02/07 12:02:49;;;;;;;2.58;1.10;;;;;;;6.21;57.94;98851.19;4956431;29;20043;-67
2022/02/07 12:05:19;;;;;;;1.70;0.90;;;;;;;6.19;57.72;98857.91;4956312;29;20047;-66
2022/02/07 12:08:05;;;;;;;2.35;1.00;;;;;;;6.16;57.74;98868.06;4956520;29;20039;-68
2022/02/07 12:10:39;;;;;;;3.22;1.98;;;;;;;6.09;58.06;98863.81;4956601;29;20405;-68
2022/02/07 12:13:30;;;;;;;4.25;1.60;;;;;;;6.14;57.79;98874.81;4956258;29;20047;-67
2022/02/07 12:16:04;;;;;;;2.75;1.15;;;;;;;6.14;57.81;98882.41;4956125;29;20505;-67
2022/02/07 12:18:33;;;;;;;3.38;1.20;;;;;;;6.20;57.76;98884.09;4956411;29;20409;-68
2022/02/07 12:21:14;;;;;;;3.80;1.30;;;;;;;6.24;58.11;98891.72;4956523;29;20397;-68
2022/02/07 12:23:50;;;;;;;5.40;1.60;;;;;;;6.20;58.22;98887.47;4956407;29;20062;-67
2022/02/07 12:26:19;;;;;;;2.83;1.50;;;;;;;6.16;58.13;98888.31;4956069;29;20078;-67
2022/02/07 12:28:56;;;;;;;3.42;1.17;;;;;;;6.18;58.10;98889.16;4955935;29;20051;-67
2022/02/07 12:31:40;;;;;;;7.25;3.30;;;;;;;6.38;57.92;98900.19;4955981;29;20134;-67
2022/02/07 12:34:13;;;;;;;9.07;4.22;;;;;;;6.37;57.21;98893.47;4955909;29;20137;-68
2022/02/07 12:36:45;;;;;;;4.03;2.20;;;;;;;6.36;57.32;98912.03;4955776;29;20492;-67
2022/02/07 12:39:16;;;;;;;7.32;3.97;;;;;;;6.36;57.42;98914.56;4955966;29;20062;-68
2022/02/07 12:41:46;;;;;;;6.38;2.95;;;;;;;6.34;58.07;98915.41;4957320;28;20126;-68
2022/02/07 12:44:22;;;;;;;19.23;8.15;;;;;;;6.25;58.63;98923.81;4974905;28;20114;-68
2022/02/07 12:46:55;;;;;;;14.95;5.22;;;;;;;6.20;58.63;98917.03;4974936;28;20069;-68
2022/02/07 12:49:36;;;;;;;7.10;3.95;;;;;;;6.16;58.88;98938.13;4970803;28;20055;-67
2022/02/07 12:52:05;;;;;;;4.07;1.60;;;;;;;5.96;59.52;98938.88;4966618;28;20049;-68
2022/02/07 12:54:38;;;;;;;;;;;;;;;5.87;59.95;98955.69;4958156;28;20055;-68
2022/02/07 12:57:07;;;;;;;4.38;1.95;;;;;;;5.84;60.61;98950.56;4960490;28;20020;-68
2022/02/07 12:59:36;;;;;;;2.38;1.10;;;;;;;5.78;61.21;98953.09;4954173;29;20051;-68
2022/02/07 13:02:05;;;;;;;3.17;1.45;;;;;;;5.78;61.36;98955.63;4955500;29;20143;-68
2022/02/07 13:04:35;;;;;;;1.88;1.02;;;;;;;5.84;60.98;98961.59;4955454;29;20069;-68
2022/02/07 13:07:05;;;;;;;1.63;0.90;;;;;;;5.88;60.92;98962.44;4966571;28;20042;-67
2022/02/07 13:09:42;;;;;;;2.95;1.17;;;;;;;5.85;60.52;98964.97;4974709;28;20101;-68
2022/02/07 13:12:21;;;;;;;2.55;1.15;;;;;;;5.81;59.97;98980.94;4974595;28;20046;-67
2022/02/07 13:14:52;;;;;;;3.17;1.30;;;;;;;5.75;59.65;98985.97;4974589;28;20050;-67
2022/02/07 13:17:23;;;;;;;1.17;0.70;;;;;;;5.73;60.26;98983.44;4974601;28;20046;-67
2022/02/07 13:19:54;;;;;;;1.83;0.95;;;;;;;6.06;60.16;98988.75;4974908;28;20496;-68
2022/02/07 13:22:31;;;;;;;1.35;0.88;;;;;;;5.95;60.67;98994.59;4974647;28;20527;-68
2022/02/07 13:25:00;;;;;;;1.75;1.05;;;;;;;5.88;60.54;99010.56;4974076;28;20058;-68
2022/02/07 13:27:38;;;;;;;2.23;1.10;;;;;;;5.90;60.33;99011.44;4974302;28;20063;-69
2022/02/07 13:30:11;;;;;;;3.75;1.73;;;;;;;5.87;60.56;99026.59;4974693;28;20046;-68
2022/02/07 13:32:41;;;;;;;1.98;1.00;;;;;;;5.89;60.74;99024.91;4974529;28;20061;-68
2022/02/07 13:35:13;;;;;;;1.63;0.90;;;;;;;5.92;60.80;99035.06;4974553;28;20047;-69
2022/02/07 13:37:43;;;;;;;2.00;1.15;;;;;;;5.84;60.72;99046.78;4974240;28;20133;-69
2022/02/07 13:40:15;;;;;;;2.42;1.20;;;;;;;5.62;62.02;99033.09;4974421;28;20050;-69
2022/02/07 13:42:48;;;;;;;2.53;1.20;;;;;;;5.38;62.87;99030.38;4974525;28;20059;-68
2022/02/07 13:45:18;;;;;;;2.08;0.95;;;;;;;5.32;63.85;99042.97;4974429;28;20075;-69
2022/02/07 13:47:49;;;;;;;2.25;1.20;;;;;;;5.51;64.37;99041.44;4974749;28;20090;-68
2022/02/07 13:50:21;;;;;;;4.00;1.20;;;;;;;5.67;64.97;99043.28;4974629;28;20077;-68
2022/02/07 13:52:52;;;;;;;4.13;1.30;;;;;;;5.82;64.98;99053.53;4974359;28;20049;-68
2022/02/07 13:55:25;;;;;;;2.78;1.30;;;;;;;5.78;64.36;99061.94;4974380;28;20043;-68
2022/02/07 13:57:58;;;;;;;2.53;1.10;;;;;;;6.02;63.84;99052.03;4974228;28;20129;-68
2022/02/07 14:00:31;;;;;;;1.70;0.93;;;;;;;6.22;63.83;99058.06;4974288;28;20070;-68
2022/02/07 14:03:12;;;;;;;2.58;1.30;;;;;;;6.57;63.04;99064.22;4972987;28;20047;-68
2022/02/07 14:05:44;;;;;;;1.92;0.98;;;;;;;6.80;62.77;99060.91;4976744;28;20070;-69
2022/02/07 14:08:14;;;;;;;2.58;1.20;;;;;;;6.58;62.75;99068.41;4977818;28;20047;-68
2022/02/07 14:10:46;;;;;;;2.47;1.40;;;;;;;6.43;62.38;99070.88;4977891;28;20401;-69
2022/02/07 14:13:18;;;;;;;4.22;1.63;;;;;;;6.35;62.53;99070.00;4970446;28;20493;-69
2022/02/07 14:15:47;;;;;;;2.80;1.23;;;;;;;6.28;61.68;99075.88;4978064;28;20488;-69